createdAt,value
2018-05-02T00:00:18.273Z,1007.87
2018-05-02T00:01:18.204Z,1007.88
2018-05-02T00:02:18.123Z,1007.88
2018-05-02T00:03:18.043Z,1007.95
2018-05-02T00:04:17.964Z,1007.88
2018-05-02T00:05:17.892Z,1007.88
2018-05-02T00:06:17.812Z,1007.88
2018-05-02T00:07:17.731Z,1007.91
2018-05-02T00:08:17.652Z,1007.88
2018-05-02T00:09:17.576Z,1007.92
2018-05-02T00:10:17.573Z,1007.89
2018-05-02T00:11:17.423Z,1007.90
2018-05-02T00:12:17.344Z,1007.88
2018-05-02T00:13:17.269Z,1007.91
2018-05-02T00:14:17.188Z,1007.89
2018-05-02T00:15:17.113Z,1007.89
2018-05-02T00:16:17.037Z,1007.91
2018-05-02T00:17:16.961Z,1007.92
2018-05-02T00:18:16.881Z,1007.88
2018-05-02T00:19:16.805Z,1007.90
2018-05-02T00:20:16.723Z,1007.84
2018-05-02T00:21:16.653Z,1007.86
2018-05-02T00:22:16.571Z,1007.85
2018-05-02T00:23:16.498Z,1007.87
2018-05-02T00:24:16.418Z,1007.87
2018-05-02T00:25:16.340Z,1007.86
2018-05-02T00:26:16.265Z,1007.82
2018-05-02T00:27:16.185Z,1007.84
2018-05-02T00:28:16.115Z,1007.82
2018-05-02T00:29:16.024Z,1007.83
2018-05-02T00:30:15.954Z,1007.85
2018-05-02T00:31:15.875Z,1007.83
2018-05-02T00:32:15.796Z,1007.81
2018-05-02T00:33:15.720Z,1007.87
2018-05-02T00:34:15.640Z,1007.87
2018-05-02T00:35:15.564Z,1007.87
2018-05-02T00:36:15.487Z,1007.89
2018-05-02T00:37:15.410Z,1007.91
2018-05-02T00:38:15.330Z,1007.87
2018-05-02T00:39:15.253Z,1007.88
2018-05-02T00:40:15.175Z,1007.87
2018-05-02T00:41:15.098Z,1007.91
2018-05-02T00:42:15.021Z,1007.83
2018-05-02T00:43:14.943Z,1007.87
2018-05-02T00:44:14.867Z,1007.85
2018-05-02T00:45:14.788Z,1007.88
2018-05-02T00:46:14.710Z,1007.80
2018-05-02T00:47:14.629Z,1007.82
2018-05-02T00:48:14.554Z,1007.82
2018-05-02T00:49:14.496Z,1007.81
2018-05-02T00:50:14.400Z,1007.82
2018-05-02T00:51:14.321Z,1007.83
2018-05-02T00:52:14.244Z,1007.85
2018-05-02T00:53:14.167Z,1007.83
2018-05-02T00:54:14.090Z,1007.82
2018-05-02T00:55:14.009Z,1007.77
2018-05-02T00:56:13.934Z,1007.75
2018-05-02T00:57:13.857Z,1007.76
2018-05-02T00:58:13.776Z,1007.77
2018-05-02T00:59:13.699Z,1007.75
2018-05-02T01:00:13.622Z,1007.71
2018-05-02T01:01:13.545Z,1007.72
2018-05-02T01:02:13.466Z,1007.74
2018-05-02T01:03:13.388Z,1007.70
2018-05-02T01:04:13.326Z,1007.69
2018-05-02T01:05:13.234Z,1007.66
2018-05-02T01:06:13.156Z,1007.66
2018-05-02T01:07:13.078Z,1007.67
2018-05-02T01:08:12.999Z,1007.68
2018-05-02T01:09:12.921Z,1007.66
2018-05-02T01:10:12.844Z,1007.69
2018-05-02T01:11:12.769Z,1007.65
2018-05-02T01:12:12.697Z,1007.66
2018-05-02T01:13:12.611Z,1007.67
2018-05-02T01:14:12.539Z,1007.64
2018-05-02T01:15:12.456Z,1007.63
2018-05-02T01:16:12.378Z,1007.60
2018-05-02T01:17:12.299Z,1007.63
2018-05-02T01:18:12.222Z,1007.62
2018-05-02T01:19:12.151Z,1007.60
2018-05-02T01:20:12.066Z,1007.59
2018-05-02T01:21:11.986Z,1007.58
2018-05-02T01:22:11.912Z,1007.52
2018-05-02T01:23:11.837Z,1007.50
2018-05-02T01:24:11.755Z,1007.51
2018-05-02T01:25:11.682Z,1007.50
2018-05-02T01:26:11.598Z,1007.51
2018-05-02T01:27:11.521Z,1007.49
2018-05-02T01:28:11.446Z,1007.48
2018-05-02T01:29:11.364Z,1007.50
2018-05-02T01:30:11.290Z,1007.49
2018-05-02T01:31:11.209Z,1007.44
2018-05-02T01:32:11.135Z,1007.42
2018-05-02T01:33:11.056Z,1007.40
2018-05-02T01:34:10.981Z,1007.42
2018-05-02T01:35:10.902Z,1007.44
2018-05-02T01:36:10.820Z,1007.35
2018-05-02T01:37:10.742Z,1007.34
2018-05-02T01:38:10.662Z,1007.30
2018-05-02T01:39:10.584Z,1007.28
2018-05-02T01:40:10.512Z,1007.31
2018-05-02T01:41:10.430Z,1007.27
2018-05-02T01:42:10.356Z,1007.23
2018-05-02T01:43:10.274Z,1007.30
2018-05-02T01:44:10.202Z,1007.23
2018-05-02T01:45:10.118Z,1007.26
2018-05-02T01:46:10.038Z,1007.34
2018-05-02T01:47:09.963Z,1007.25
2018-05-02T01:48:09.885Z,1007.32
2018-05-02T01:49:09.816Z,1007.28
2018-05-02T01:50:09.727Z,1007.31
2018-05-02T01:51:09.650Z,1007.32
2018-05-02T01:52:09.572Z,1007.27
2018-05-02T01:53:09.494Z,1007.29
2018-05-02T01:54:09.424Z,1007.31
2018-05-02T01:55:09.341Z,1007.30
2018-05-02T01:56:09.261Z,1007.32
2018-05-02T01:57:09.182Z,1007.32
2018-05-02T01:58:09.102Z,1007.33
2018-05-02T01:59:09.028Z,1007.30
2018-05-02T02:00:08.948Z,1007.28
2018-05-02T02:01:08.869Z,1007.30
2018-05-02T02:02:08.795Z,1007.32
2018-05-02T02:03:08.717Z,1007.30
2018-05-02T02:04:08.638Z,1007.28
2018-05-02T02:05:08.558Z,1007.33
2018-05-02T02:06:08.479Z,1007.28
2018-05-02T02:07:08.401Z,1007.33
2018-05-02T02:08:08.324Z,1007.32
2018-05-02T02:09:08.249Z,1007.31
2018-05-02T02:10:08.166Z,1007.31
2018-05-02T02:11:08.088Z,1007.27
2018-05-02T02:12:08.010Z,1007.32
2018-05-02T02:13:07.931Z,1007.30
2018-05-02T02:14:07.853Z,1007.30
2018-05-02T02:15:07.775Z,1007.32
2018-05-02T02:16:07.698Z,1007.31
2018-05-02T02:17:07.619Z,1007.32
2018-05-02T02:18:07.541Z,1007.31
2018-05-02T02:19:07.461Z,1007.33
2018-05-02T02:20:07.384Z,1007.32
2018-05-02T02:21:07.311Z,1007.31
2018-05-02T02:22:07.228Z,1007.35
2018-05-02T02:23:07.151Z,1007.34
2018-05-02T02:24:07.073Z,1007.35
2018-05-02T02:25:06.994Z,1007.32
2018-05-02T02:26:06.916Z,1007.26
2018-05-02T02:27:06.837Z,1007.25
2018-05-02T02:28:06.761Z,1007.28
2018-05-02T02:29:06.682Z,1007.21
2018-05-02T02:30:06.601Z,1007.24
2018-05-02T02:31:06.519Z,1007.25
2018-05-02T02:32:06.451Z,1007.23
2018-05-02T02:33:06.366Z,1007.24
2018-05-02T02:34:06.361Z,1007.23
2018-05-02T02:35:06.213Z,1007.27
2018-05-02T02:36:06.136Z,1007.26
2018-05-02T02:37:06.056Z,1007.25
2018-05-02T02:38:05.977Z,1007.26
2018-05-02T02:39:05.905Z,1007.25
2018-05-02T02:40:05.820Z,1007.24
2018-05-02T02:41:05.746Z,1007.27
2018-05-02T02:42:05.664Z,1007.29
2018-05-02T02:43:05.588Z,1007.25
2018-05-02T02:44:05.508Z,1007.30
2018-05-02T02:45:05.433Z,1007.35
2018-05-02T02:46:05.351Z,1007.33
2018-05-02T02:47:05.272Z,1007.32
2018-05-02T02:48:05.196Z,1007.31
2018-05-02T02:49:05.121Z,1007.31
2018-05-02T02:50:05.040Z,1007.32
2018-05-02T02:51:04.959Z,1007.33
2018-05-02T02:52:04.882Z,1007.32
2018-05-02T02:53:04.843Z,1007.32
2018-05-02T02:54:04.726Z,1007.37
2018-05-02T02:55:04.650Z,1007.37
2018-05-02T02:56:04.570Z,1007.35
2018-05-02T02:57:04.489Z,1007.32
2018-05-02T02:58:04.412Z,1007.37
2018-05-02T02:59:04.337Z,1007.34
2018-05-02T03:00:04.255Z,1007.38
2018-05-02T03:01:04.182Z,1007.39
2018-05-02T03:02:04.100Z,1007.39
2018-05-02T03:03:04.020Z,1007.42
2018-05-02T03:04:03.947Z,1007.39
2018-05-02T03:05:03.865Z,1007.37
2018-05-02T03:06:03.791Z,1007.41
2018-05-02T03:07:03.708Z,1007.41
2018-05-02T03:08:03.628Z,1007.39
2018-05-02T03:09:03.549Z,1007.40
2018-05-02T03:10:03.471Z,1007.41
2018-05-02T03:11:03.395Z,1007.37
2018-05-02T03:12:03.316Z,1007.39
2018-05-02T03:13:03.238Z,1007.37
2018-05-02T03:14:03.158Z,1007.40
2018-05-02T03:15:03.080Z,1007.37
2018-05-02T03:16:03.001Z,1007.36
2018-05-02T03:17:02.924Z,1007.36
2018-05-02T03:18:02.845Z,1007.34
2018-05-02T03:19:02.773Z,1007.38
2018-05-02T03:20:02.689Z,1007.34
2018-05-02T03:21:02.614Z,1007.30
2018-05-02T03:22:02.540Z,1007.30
2018-05-02T03:23:02.452Z,1007.30
2018-05-02T03:24:02.376Z,1007.34
2018-05-02T03:25:02.318Z,1007.31
2018-05-02T03:26:02.220Z,1007.32
2018-05-02T03:27:02.219Z,1007.26
2018-05-02T03:28:02.064Z,1007.28
2018-05-02T03:29:01.982Z,1007.28
2018-05-02T03:30:01.911Z,1007.25
2018-05-02T03:31:01.824Z,1007.29
2018-05-02T03:32:01.747Z,1007.27
2018-05-02T03:33:01.677Z,1007.27
2018-05-02T03:34:01.590Z,1007.24
2018-05-02T03:35:01.511Z,1007.30
2018-05-02T03:36:01.435Z,1007.35
2018-05-02T03:37:01.356Z,1007.35
2018-05-02T03:38:01.277Z,1007.33
2018-05-02T03:39:01.200Z,1007.29
2018-05-02T03:40:01.121Z,1007.34
2018-05-02T03:41:01.042Z,1007.32
2018-05-02T03:42:00.962Z,1007.37
2018-05-02T03:43:00.884Z,1007.35
2018-05-02T03:44:00.805Z,1007.39
2018-05-02T03:45:00.728Z,1007.41
2018-05-02T03:46:00.647Z,1007.40
2018-05-02T03:47:00.571Z,1007.38
2018-05-02T03:48:00.495Z,1007.41
2018-05-02T03:49:00.413Z,1007.41
2018-05-02T03:50:00.332Z,1007.36
2018-05-02T03:51:00.253Z,1007.37
2018-05-02T03:52:00.178Z,1007.38
2018-05-02T03:53:00.124Z,1007.38
2018-05-02T03:54:00.023Z,1007.37
2018-05-02T03:54:59.941Z,1007.37
2018-05-02T03:55:59.863Z,1007.44
2018-05-02T03:56:59.783Z,1007.41
2018-05-02T03:57:59.703Z,1007.41
2018-05-02T03:58:59.625Z,1007.43
2018-05-02T03:59:59.551Z,1007.41
2018-05-02T04:00:59.468Z,1007.42
2018-05-02T04:01:59.389Z,1007.41
2018-05-02T04:02:59.312Z,1007.41
2018-05-02T04:03:59.233Z,1007.41
2018-05-02T04:04:59.149Z,1007.39
2018-05-02T04:05:59.076Z,1007.45
2018-05-02T04:06:58.996Z,1007.44
2018-05-02T04:07:58.916Z,1007.43
2018-05-02T04:08:58.838Z,1007.42
2018-05-02T04:09:58.758Z,1007.40
2018-05-02T04:10:58.681Z,1007.43
2018-05-02T04:11:58.605Z,1007.44
2018-05-02T04:12:58.524Z,1007.40
2018-05-02T04:13:58.445Z,1007.39
2018-05-02T04:14:58.366Z,1007.40
2018-05-02T04:15:58.288Z,1007.43
2018-05-02T04:16:58.212Z,1007.37
2018-05-02T04:17:58.131Z,1007.41
2018-05-02T04:18:58.051Z,1007.40
2018-05-02T04:19:57.971Z,1007.40
2018-05-02T04:20:57.896Z,1007.40
2018-05-02T04:21:57.815Z,1007.43
2018-05-02T04:22:57.736Z,1007.44
2018-05-02T04:23:57.670Z,1007.42
2018-05-02T04:24:57.596Z,1007.40
2018-05-02T04:25:57.499Z,1007.43
2018-05-02T04:26:57.421Z,1007.43
2018-05-02T04:27:57.340Z,1007.38
2018-05-02T04:28:57.264Z,1007.43
2018-05-02T04:29:57.193Z,1007.42
2018-05-02T04:30:57.101Z,1007.40
2018-05-02T04:31:57.028Z,1007.41
2018-05-02T04:32:56.949Z,1007.45
2018-05-02T04:33:56.868Z,1007.46
2018-05-02T04:34:56.791Z,1007.50
2018-05-02T04:35:56.712Z,1007.50
2018-05-02T04:36:56.632Z,1007.44
2018-05-02T04:37:56.557Z,1007.48
2018-05-02T04:38:56.477Z,1007.47
2018-05-02T04:39:56.399Z,1007.50
2018-05-02T04:40:56.324Z,1007.50
2018-05-02T04:41:56.240Z,1007.53
2018-05-02T04:42:56.164Z,1007.52
2018-05-02T04:43:56.082Z,1007.48
2018-05-02T04:44:56.003Z,1007.54
2018-05-02T04:45:55.926Z,1007.56
2018-05-02T04:46:55.843Z,1007.50
2018-05-02T04:47:55.767Z,1007.59
2018-05-02T04:48:55.689Z,1007.56
2018-05-02T04:49:55.618Z,1007.58
2018-05-02T04:50:55.531Z,1007.54
2018-05-02T04:51:55.451Z,1007.58
2018-05-02T04:52:55.373Z,1007.56
2018-05-02T04:53:55.296Z,1007.59
2018-05-02T04:54:55.216Z,1007.64
2018-05-02T04:55:55.136Z,1007.64
2018-05-02T04:56:55.059Z,1007.66
2018-05-02T04:57:54.978Z,1007.66
2018-05-02T04:58:54.901Z,1007.68
2018-05-02T04:59:54.822Z,1007.74
2018-05-02T05:00:54.743Z,1007.74
2018-05-02T05:01:54.662Z,1007.78
2018-05-02T05:02:54.585Z,1007.80
2018-05-02T05:03:54.507Z,1007.80
2018-05-02T05:04:54.428Z,1007.81
2018-05-02T05:05:54.347Z,1007.77
2018-05-02T05:06:54.271Z,1007.76
2018-05-02T05:07:54.222Z,1007.83
2018-05-02T05:08:54.116Z,1007.77
2018-05-02T05:09:54.033Z,1007.78
2018-05-02T05:10:53.958Z,1007.83
2018-05-02T05:11:53.878Z,1007.82
2018-05-02T05:12:53.801Z,1007.79
2018-05-02T05:13:53.720Z,1007.81
2018-05-02T05:14:53.641Z,1007.77
2018-05-02T05:15:53.563Z,1007.84
2018-05-02T05:16:53.484Z,1007.84
2018-05-02T05:17:53.405Z,1007.86
2018-05-02T05:18:53.331Z,1007.86
2018-05-02T05:19:53.307Z,1007.88
2018-05-02T05:20:53.169Z,1007.87
2018-05-02T05:21:53.090Z,1007.87
2018-05-02T05:22:53.016Z,1007.83
2018-05-02T05:23:52.936Z,1007.89
2018-05-02T05:24:52.858Z,1007.90
2018-05-02T05:25:52.778Z,1007.88
2018-05-02T05:26:52.703Z,1007.87
2018-05-02T05:27:52.621Z,1007.92
2018-05-02T05:28:52.544Z,1007.94
2018-05-02T05:29:52.469Z,1007.90
2018-05-02T05:30:52.388Z,1007.94
2018-05-02T05:31:52.309Z,1007.93
2018-05-02T05:32:52.233Z,1007.98
2018-05-02T05:33:52.150Z,1007.93
2018-05-02T05:34:52.075Z,1008.00
2018-05-02T05:35:51.998Z,1007.99
2018-05-02T05:36:51.920Z,1008.01
2018-05-02T05:37:51.842Z,1007.99
2018-05-02T05:38:51.764Z,1008.00
2018-05-02T05:39:51.685Z,1007.97
2018-05-02T05:40:51.601Z,1007.98
2018-05-02T05:41:51.531Z,1008.04
2018-05-02T05:42:51.455Z,1008.06
2018-05-02T05:43:51.375Z,1008.03
2018-05-02T05:44:51.300Z,1007.97
2018-05-02T05:45:51.219Z,1008.00
2018-05-02T05:46:51.145Z,1008.01
2018-05-02T05:47:51.065Z,1008.02
2018-05-02T05:48:50.988Z,1008.02
2018-05-02T05:49:50.915Z,1008.00
2018-05-02T05:50:50.833Z,1007.96
2018-05-02T05:51:50.757Z,1007.99
2018-05-02T05:52:50.678Z,1008.01
2018-05-02T05:53:50.600Z,1007.98
2018-05-02T05:54:50.524Z,1008.01
2018-05-02T05:55:50.444Z,1008.01
2018-05-02T05:56:50.369Z,1007.99
2018-05-02T05:57:50.291Z,1008.02
2018-05-02T05:58:50.214Z,1007.95
2018-05-02T05:59:50.137Z,1007.94
2018-05-02T06:00:50.111Z,1008.01
2018-05-02T06:01:49.981Z,1007.98
2018-05-02T06:02:49.909Z,1007.98
2018-05-02T06:03:49.828Z,1008.03
2018-05-02T06:04:49.752Z,1008.01
2018-05-02T06:05:49.674Z,1008.05
2018-05-02T06:06:49.609Z,1007.99
2018-05-02T06:07:49.520Z,1007.97
2018-05-02T06:08:49.444Z,1007.99
2018-05-02T06:09:49.366Z,1007.96
2018-05-02T06:10:49.290Z,1007.92
2018-05-02T06:11:49.211Z,1007.92
2018-05-02T06:12:49.181Z,1007.93
2018-05-02T06:13:49.059Z,1007.96
2018-05-02T06:14:48.982Z,1007.97
2018-05-02T06:15:48.912Z,1007.96
2018-05-02T06:16:48.829Z,1007.98
2018-05-02T06:17:48.749Z,1007.95
2018-05-02T06:18:48.716Z,1007.94
2018-05-02T06:19:48.598Z,1007.91
2018-05-02T06:20:48.522Z,1007.93
2018-05-02T06:21:48.446Z,1007.90
2018-05-02T06:22:48.370Z,1007.89
2018-05-02T06:23:48.296Z,1007.89
2018-05-02T06:24:48.214Z,1007.89
2018-05-02T06:25:48.137Z,1007.88
2018-05-02T06:26:48.063Z,1007.90
2018-05-02T06:27:47.988Z,1007.93
2018-05-02T06:28:47.911Z,1007.88
2018-05-02T06:29:47.834Z,1007.87
2018-05-02T06:30:48.379Z,1007.87
2018-05-02T06:31:47.729Z,1007.85
2018-05-02T06:32:47.606Z,1007.86
2018-05-02T06:33:47.528Z,1007.90
2018-05-02T06:34:47.458Z,1007.87
2018-05-02T06:35:47.381Z,1007.92
2018-05-02T06:36:47.301Z,1007.92
2018-05-02T06:37:47.301Z,1007.93
2018-05-02T06:38:47.146Z,1007.97
2018-05-02T06:39:47.067Z,1007.99
2018-05-02T06:40:47.001Z,1008.00
2018-05-02T06:41:46.921Z,1007.97
2018-05-02T06:42:46.843Z,1007.98
2018-05-02T06:43:46.765Z,1007.95
2018-05-02T06:44:46.690Z,1008.02
2018-05-02T06:45:46.612Z,1008.05
2018-05-02T06:46:46.541Z,1008.02
2018-05-02T06:47:46.465Z,1008.05
2018-05-02T06:48:46.384Z,1008.06
2018-05-02T06:49:46.308Z,1008.09
2018-05-02T06:50:46.239Z,1008.04
2018-05-02T06:51:46.158Z,1008.05
2018-05-02T06:52:46.082Z,1008.06
2018-05-02T06:53:46.008Z,1008.04
2018-05-02T06:54:45.970Z,1008.07
2018-05-02T06:55:45.853Z,1007.99
2018-05-02T06:56:45.783Z,1008.02
2018-05-02T06:57:45.704Z,1008.01
2018-05-02T06:58:45.633Z,1007.98
2018-05-02T06:59:45.550Z,1008.02
2018-05-02T07:00:45.499Z,1008.00
2018-05-02T07:01:45.400Z,1007.99
2018-05-02T07:02:45.325Z,1008.01
2018-05-02T07:03:45.250Z,1008.05
2018-05-02T07:04:45.176Z,1008.01
2018-05-02T07:05:45.100Z,1008.03
2018-05-02T07:06:45.023Z,1008.04
2018-05-02T07:07:44.947Z,1008.05
2018-05-02T07:08:44.872Z,1007.97
2018-05-02T07:09:44.795Z,1008.00
2018-05-02T07:10:44.723Z,1008.03
2018-05-02T07:11:44.645Z,1008.07
2018-05-02T07:12:44.572Z,1008.07
2018-05-02T07:13:44.497Z,1008.04
2018-05-02T07:14:44.428Z,1008.08
2018-05-02T07:15:44.351Z,1008.07
2018-05-02T07:16:44.270Z,1008.03
2018-05-02T07:17:44.194Z,1008.09
2018-05-02T07:18:44.120Z,1008.09
2018-05-02T07:19:44.043Z,1008.09
2018-05-02T07:20:43.970Z,1008.06
2018-05-02T07:21:43.895Z,1008.07
2018-05-02T07:22:43.818Z,1008.03
2018-05-02T07:23:43.743Z,1008.07
2018-05-02T07:24:43.675Z,1008.06
2018-05-02T07:25:43.594Z,1008.05
2018-05-02T07:26:43.518Z,1008.04
2018-05-02T07:27:44.384Z,1008.08
2018-05-02T07:28:43.368Z,1008.06
2018-05-02T07:29:43.298Z,1008.01
2018-05-02T07:30:43.219Z,1008.03
2018-05-02T07:31:43.144Z,1007.99
2018-05-02T07:32:43.143Z,1007.99
2018-05-02T07:33:42.996Z,1007.99
2018-05-02T07:34:42.921Z,1007.97
2018-05-02T07:35:42.850Z,1007.98
2018-05-02T07:36:42.772Z,1008.03
2018-05-02T07:37:42.699Z,1008.03
2018-05-02T07:38:42.623Z,1007.98
2018-05-02T07:39:42.549Z,1007.94
2018-05-02T07:40:42.476Z,1007.96
2018-05-02T07:41:42.400Z,1007.94
2018-05-02T07:42:42.327Z,1007.92
2018-05-02T07:43:42.251Z,1007.97
2018-05-02T07:44:42.179Z,1007.98
2018-05-02T07:45:42.102Z,1007.94
2018-05-02T07:46:42.031Z,1007.92
2018-05-02T07:47:41.953Z,1007.91
2018-05-02T07:48:41.898Z,1007.88
2018-05-02T07:49:41.805Z,1007.85
2018-05-02T07:50:41.733Z,1007.85
2018-05-02T07:51:41.660Z,1007.84
2018-05-02T07:52:41.583Z,1007.86
2018-05-02T07:53:41.512Z,1007.89
2018-05-02T07:54:41.437Z,1007.89
2018-05-02T07:55:41.361Z,1007.90
2018-05-02T07:56:41.296Z,1007.89
2018-05-02T07:57:41.211Z,1007.90
2018-05-02T07:58:41.142Z,1007.90
2018-05-02T07:59:41.067Z,1007.88
2018-05-02T08:00:40.992Z,1007.90
2018-05-02T08:01:40.917Z,1007.88
2018-05-02T08:02:40.843Z,1007.88
2018-05-02T08:03:40.770Z,1007.85
2018-05-02T08:04:40.703Z,1007.85
2018-05-02T08:05:40.622Z,1007.84
2018-05-02T08:06:40.550Z,1007.79
2018-05-02T08:07:40.479Z,1007.80
2018-05-02T08:08:40.403Z,1007.74
2018-05-02T08:09:40.337Z,1007.70
2018-05-02T08:10:40.262Z,1007.73
2018-05-02T08:11:40.183Z,1007.71
2018-05-02T08:12:40.112Z,1007.70
2018-05-02T08:13:40.036Z,1007.69
2018-05-02T08:14:39.969Z,1007.67
2018-05-02T08:15:39.890Z,1007.66
2018-05-02T08:16:39.820Z,1007.61
2018-05-02T08:17:39.749Z,1007.60
2018-05-02T08:18:39.673Z,1007.61
2018-05-02T08:19:39.599Z,1007.60
2018-05-02T08:20:39.529Z,1007.55
2018-05-02T08:21:39.454Z,1007.53
2018-05-02T08:22:39.380Z,1007.50
2018-05-02T08:23:39.301Z,1007.53
2018-05-02T08:24:39.228Z,1007.50
2018-05-02T08:25:39.170Z,1007.46
2018-05-02T08:26:39.090Z,1007.41
2018-05-02T08:27:39.016Z,1007.37
2018-05-02T08:28:38.945Z,1007.37
2018-05-02T08:29:38.873Z,1007.35
2018-05-02T08:30:38.798Z,1007.39
2018-05-02T08:31:38.724Z,1007.38
2018-05-02T08:32:38.653Z,1007.30
2018-05-02T08:33:38.578Z,1007.30
2018-05-02T08:34:38.507Z,1007.30
2018-05-02T08:35:38.440Z,1007.34
2018-05-02T08:36:38.360Z,1007.34
2018-05-02T08:37:38.287Z,1007.35
2018-05-02T08:38:38.217Z,1007.31
2018-05-02T08:39:38.149Z,1007.33
2018-05-02T08:40:38.073Z,1007.29
2018-05-02T08:41:37.999Z,1007.26
2018-05-02T08:42:37.927Z,1007.22
2018-05-02T08:43:37.856Z,1007.28
2018-05-02T08:44:37.784Z,1007.26
2018-05-02T08:45:37.713Z,1007.19
2018-05-02T08:46:37.642Z,1007.13
2018-05-02T08:47:37.569Z,1007.15
2018-05-02T08:48:37.500Z,1007.06
2018-05-02T08:49:37.431Z,1007.07
2018-05-02T08:50:37.355Z,1007.13
2018-05-02T08:51:37.281Z,1007.14
2018-05-02T08:52:37.213Z,1007.13
2018-05-02T08:53:37.141Z,1007.13
2018-05-02T08:54:37.073Z,1007.08
2018-05-02T08:55:36.999Z,1007.10
2018-05-02T08:56:36.928Z,1007.05
2018-05-02T08:57:36.857Z,1007.04
2018-05-02T08:58:36.786Z,1007.00
2018-05-02T08:59:36.715Z,1006.94
2018-05-02T09:00:36.643Z,1006.97
2018-05-02T09:01:36.573Z,1007.00
2018-05-02T09:02:36.503Z,1006.99
2018-05-02T09:03:36.430Z,1007.04
2018-05-02T09:04:36.361Z,1007.06
2018-05-02T09:05:36.290Z,1007.05
2018-05-02T09:06:36.226Z,1007.07
2018-05-02T09:07:36.154Z,1007.08
2018-05-02T09:08:36.079Z,1007.01
2018-05-02T09:09:36.007Z,1007.00
2018-05-02T09:10:35.937Z,1007.04
2018-05-02T09:11:35.868Z,1007.05
2018-05-02T09:12:35.797Z,1007.03
2018-05-02T09:13:35.726Z,1007.00
2018-05-02T09:14:35.662Z,1007.05
2018-05-02T09:15:35.613Z,1007.08
2018-05-02T09:16:35.517Z,1007.14
2018-05-02T09:17:35.447Z,1007.09
2018-05-02T09:18:35.381Z,1007.15
2018-05-02T09:19:35.329Z,1007.17
2018-05-02T09:20:35.244Z,1007.17
2018-05-02T09:21:35.175Z,1007.14
2018-05-02T09:22:35.112Z,1007.09
2018-05-02T09:23:35.044Z,1007.11
2018-05-02T09:24:34.977Z,1007.10
2018-05-02T09:25:34.909Z,1007.13
2018-05-02T09:26:34.843Z,1007.14
2018-05-02T09:27:34.779Z,1007.14
2018-05-02T09:28:34.714Z,1007.14
2018-05-02T09:29:34.649Z,1007.13
2018-05-02T09:30:34.585Z,1007.07
2018-05-02T09:31:34.523Z,1007.08
2018-05-02T09:32:34.457Z,1007.07
2018-05-02T09:33:34.396Z,1007.10
2018-05-02T09:34:34.333Z,1007.07
2018-05-02T09:35:34.308Z,1007.07
2018-05-02T09:36:34.212Z,1007.04
2018-05-02T09:37:34.149Z,1006.99
2018-05-02T09:38:34.092Z,1006.97
2018-05-02T09:39:34.025Z,1006.92
2018-05-02T09:40:33.966Z,1006.90
2018-05-02T09:41:33.901Z,1006.97
2018-05-02T09:42:33.841Z,1006.91
2018-05-02T09:43:33.780Z,1006.86
2018-05-02T09:44:33.723Z,1006.86
2018-05-02T09:45:33.657Z,1006.84
2018-05-02T09:46:33.599Z,1006.87
2018-05-02T09:47:33.536Z,1006.86
2018-05-02T09:48:33.484Z,1006.87
2018-05-02T09:49:33.416Z,1006.84
2018-05-02T09:50:33.352Z,1006.81
2018-05-02T09:51:33.292Z,1006.85
2018-05-02T09:52:33.230Z,1006.80
2018-05-02T09:53:33.168Z,1006.84
2018-05-02T09:54:33.113Z,1006.83
2018-05-02T09:55:33.046Z,1006.85
2018-05-02T09:56:32.986Z,1006.87
2018-05-02T09:57:32.923Z,1006.84
2018-05-02T09:58:32.863Z,1006.83
2018-05-02T09:59:32.802Z,1006.78
2018-05-02T10:00:32.741Z,1006.72
2018-05-02T10:01:32.681Z,1006.75
2018-05-02T10:02:32.621Z,1006.74
2018-05-02T10:03:32.559Z,1006.74
2018-05-02T10:04:32.523Z,1006.73
2018-05-02T10:05:32.436Z,1006.78
2018-05-02T10:06:32.385Z,1006.81
2018-05-02T10:07:32.319Z,1006.79
2018-05-02T10:08:32.259Z,1006.78
2018-05-02T10:09:32.194Z,1006.80
2018-05-02T10:10:32.136Z,1006.85
2018-05-02T10:11:32.075Z,1006.86
2018-05-02T10:12:32.058Z,1006.90
2018-05-02T10:13:31.950Z,1006.88
2018-05-02T10:14:31.893Z,1006.83
2018-05-02T10:15:31.832Z,1006.92
2018-05-02T10:16:31.775Z,1006.91
2018-05-02T10:17:31.719Z,1006.83
2018-05-02T10:18:31.696Z,1006.84
2018-05-02T10:19:31.592Z,1006.80
2018-05-02T10:20:31.535Z,1006.85
2018-05-02T10:21:31.470Z,1006.84
2018-05-02T10:22:31.407Z,1006.76
2018-05-02T10:23:31.353Z,1006.83
2018-05-02T10:24:31.288Z,1006.71
2018-05-02T10:25:31.226Z,1006.69
2018-05-02T10:26:31.174Z,1006.72
2018-05-02T10:27:31.105Z,1006.66
2018-05-02T10:28:31.044Z,1006.58
2018-05-02T10:29:30.984Z,1006.54
2018-05-02T10:30:30.921Z,1006.53
2018-05-02T10:31:30.858Z,1006.60
2018-05-02T10:32:30.800Z,1006.56
2018-05-02T10:33:30.734Z,1006.58
2018-05-02T10:34:30.672Z,1006.59
2018-05-02T10:35:30.608Z,1006.61
2018-05-02T10:36:30.547Z,1006.57
2018-05-02T10:37:30.482Z,1006.51
2018-05-02T10:38:30.420Z,1006.49
2018-05-02T10:39:30.356Z,1006.48
2018-05-02T10:40:30.291Z,1006.46
2018-05-02T10:41:30.231Z,1006.42
2018-05-02T10:42:30.164Z,1006.40
2018-05-02T10:43:30.100Z,1006.41
2018-05-02T10:44:30.034Z,1006.40
2018-05-02T10:45:29.968Z,1006.37
2018-05-02T10:46:29.903Z,1006.41
2018-05-02T10:47:29.841Z,1006.45
2018-05-02T10:48:29.768Z,1006.37
2018-05-02T10:49:29.703Z,1006.37
2018-05-02T10:50:29.717Z,1006.36
2018-05-02T10:51:29.571Z,1006.36
2018-05-02T10:52:29.506Z,1006.36
2018-05-02T10:53:29.437Z,1006.34
2018-05-02T10:54:29.367Z,1006.31
2018-05-02T10:55:29.306Z,1006.33
2018-05-02T10:56:29.243Z,1006.27
2018-05-02T10:57:29.168Z,1006.25
2018-05-02T10:58:29.103Z,1006.24
2018-05-02T10:59:29.036Z,1006.27
2018-05-02T11:00:28.969Z,1006.20
2018-05-02T11:01:28.901Z,1006.21
2018-05-02T11:02:28.832Z,1006.18
2018-05-02T11:03:28.766Z,1006.19
2018-05-02T11:04:28.693Z,1006.18
2018-05-02T11:05:28.629Z,1006.17
2018-05-02T11:06:28.565Z,1006.15
2018-05-02T11:07:28.496Z,1006.06
2018-05-02T11:08:28.456Z,1006.08
2018-05-02T11:09:28.358Z,1006.11
2018-05-02T11:10:28.293Z,1006.11
2018-05-02T11:11:28.222Z,1006.11
2018-05-02T11:12:28.158Z,1006.06
2018-05-02T11:13:28.086Z,1006.08
2018-05-02T11:14:28.020Z,1006.04
2018-05-02T11:15:27.954Z,1006.04
2018-05-02T11:16:27.887Z,1006.10
2018-05-02T11:17:27.816Z,1006.06
2018-05-02T11:18:27.744Z,1006.10
2018-05-02T11:19:27.685Z,1006.11
2018-05-02T11:20:27.616Z,1006.09
2018-05-02T11:21:27.541Z,1006.11
2018-05-02T11:22:27.474Z,1006.09
2018-05-02T11:23:27.407Z,1006.10
2018-05-02T11:24:27.339Z,1005.99
2018-05-02T11:25:27.271Z,1006.00
2018-05-02T11:26:27.214Z,1006.04
2018-05-02T11:27:27.134Z,1006.09
2018-05-02T11:28:27.151Z,1006.14
2018-05-02T11:29:26.997Z,1006.06
2018-05-02T11:30:26.933Z,1006.03
2018-05-02T11:31:26.863Z,1005.97
2018-05-02T11:32:26.794Z,1005.98
2018-05-02T11:33:26.725Z,1005.99
2018-05-02T11:34:26.660Z,1006.01
2018-05-02T11:35:26.591Z,1005.96
2018-05-02T11:36:26.522Z,1006.01
2018-05-02T11:37:26.454Z,1005.99
2018-05-02T11:38:26.388Z,1005.98
2018-05-02T11:39:26.321Z,1005.94
2018-05-02T11:40:26.249Z,1005.94
2018-05-02T11:41:26.187Z,1005.96
2018-05-02T11:42:26.115Z,1006.02
2018-05-02T11:43:26.052Z,1006.00
2018-05-02T11:44:25.980Z,1006.07
2018-05-02T11:45:25.914Z,1006.03
2018-05-02T11:46:25.846Z,1005.97
2018-05-02T11:47:25.781Z,1005.94
2018-05-02T11:48:25.712Z,1005.95
2018-05-02T11:49:25.644Z,1005.91
2018-05-02T11:50:25.577Z,1005.90
2018-05-02T11:51:25.510Z,1005.94
2018-05-02T11:52:25.442Z,1005.89
2018-05-02T11:53:25.394Z,1005.84
2018-05-02T11:54:25.314Z,1005.82
2018-05-02T11:55:25.242Z,1005.83
2018-05-02T11:56:25.175Z,1005.81
2018-05-02T11:57:25.107Z,1005.83
2018-05-02T11:58:25.039Z,1005.82
2018-05-02T11:59:24.996Z,1005.82
2018-05-02T12:00:24.907Z,1005.84
2018-05-02T12:01:24.838Z,1005.88
2018-05-02T12:02:24.770Z,1005.81
2018-05-02T12:03:24.723Z,1005.76
2018-05-02T12:04:24.639Z,1005.76